sensor_id;sensor_type;location;lat;lon;timestamp;P1;durP1;ratioP1;P2;durP2;ratioP2
50219;SDS011;36110;51.536;7.562;2023-11-19T00:01:48;0.82;;;0.60;;
50219;SDS011;36110;51.536;7.562;2023-11-19T00:04:14;2.03;;;0.80;;
50219;SDS011;36110;51.536;7.562;2023-11-19T00:06:39;1.27;;;0.80;;
50219;SDS011;36110;51.536;7.562;2023-11-19T00:09:04;0.60;;;0.60;;
50219;SDS011;36110;51.536;7.562;2023-11-19T00:11:30;0.50;;;0.50;;
50219;SDS011;36110;51.536;7.562;2023-11-19T00:13:55;0.82;;;0.82;;
50219;SDS011;36110;51.536;7.562;2023-11-19T00:16:21;1.38;;;0.70;;
50219;SDS011;36110;51.536;7.562;2023-11-19T00:18:46;1.17;;;0.77;;
50219;SDS011;36110;51.536;7.562;2023-11-19T00:21:11;1.13;;;0.90;;
50219;SDS011;36110;51.536;7.562;2023-11-19T00:23:37;0.77;;;0.77;;
50219;SDS011;36110;51.536;7.562;2023-11-19T00:26:02;0.52;;;0.52;;
50219;SDS011;36110;51.536;7.562;2023-11-19T00:28:30;0.80;;;0.70;;
50219;SDS011;36110;51.536;7.562;2023-11-19T00:30:56;2.40;;;0.80;;
50219;SDS011;36110;51.536;7.562;2023-11-19T00:33:21;0.50;;;0.50;;
50219;SDS011;36110;51.536;7.562;2023-11-19T00:35:47;0.82;;;0.80;;
50219;SDS011;36110;51.536;7.562;2023-11-19T00:38:12;0.80;;;0.70;;
50219;SDS011;36110;51.536;7.562;2023-11-19T00:40:37;0.57;;;0.55;;
50219;SDS011;36110;51.536;7.562;2023-11-19T00:43:03;0.50;;;0.50;;
50219;SDS011;36110;51.536;7.562;2023-11-19T00:45:28;0.60;;;0.60;;
50219;SDS011;36110;51.536;7.562;2023-11-19T00:47:54;2.25;;;1.13;;
50219;SDS011;36110;51.536;7.562;2023-11-19T00:50:19;0.70;;;0.70;;
50219;SDS011;36110;51.536;7.562;2023-11-19T00:52:45;2.05;;;1.05;;
50219;SDS011;36110;51.536;7.562;2023-11-19T00:55:10;1.02;;;0.75;;
50219;SDS011;36110;51.536;7.562;2023-11-19T00:57:36;1.30;;;1.20;;
50219;SDS011;36110;51.536;7.562;2023-11-19T01:00:07;1.20;;;1.00;;
50219;SDS011;36110;51.536;7.562;2023-11-19T01:02:42;0.40;;;0.40;;
50219;SDS011;36110;51.536;7.562;2023-11-19T01:05:08;0.50;;;0.50;;
50219;SDS011;36110;51.536;7.562;2023-11-19T01:07:34;1.17;;;0.60;;
50219;SDS011;36110;51.536;7.562;2023-11-19T01:09:59;1.60;;;1.10;;
50219;SDS011;36110;51.536;7.562;2023-11-19T01:12:24;2.20;;;0.57;;
50219;SDS011;36110;51.536;7.562;2023-11-19T01:14:49;0.77;;;0.77;;
50219;SDS011;36110;51.536;7.562;2023-11-19T01:17:15;0.70;;;0.70;;
50219;SDS011;36110;51.536;7.562;2023-11-19T01:19:41;0.68;;;0.68;;
50219;SDS011;36110;51.536;7.562;2023-11-19T01:22:06;0.85;;;0.80;;
50219;SDS011;36110;51.536;7.562;2023-11-19T01:24:32;0.68;;;0.60;;
50219;SDS011;36110;51.536;7.562;2023-11-19T01:26:57;1.77;;;1.33;;
50219;SDS011;36110;51.536;7.562;2023-11-19T01:29:24;0.60;;;0.60;;
50219;SDS011;36110;51.536;7.562;2023-11-19T01:31:50;1.85;;;1.75;;
50219;SDS011;36110;51.536;7.562;2023-11-19T01:34:16;2.90;;;2.10;;
50219;SDS011;36110;51.536;7.562;2023-11-19T01:36:42;1.23;;;1.13;;
50219;SDS011;36110;51.536;7.562;2023-11-19T01:39:08;2.53;;;2.10;;
50219;SDS011;36110;51.536;7.562;2023-11-19T01:41:36;1.40;;;0.60;;
50219;SDS011;36110;51.536;7.562;2023-11-19T01:44:05;2.33;;;2.05;;
50219;SDS011;36110;51.536;7.562;2023-11-19T01:46:31;3.65;;;1.35;;
50219;SDS011;36110;51.536;7.562;2023-11-19T01:48:59;2.28;;;0.88;;
50219;SDS011;36110;51.536;7.562;2023-11-19T01:51:25;1.55;;;0.90;;
50219;SDS011;36110;51.536;7.562;2023-11-19T01:53:50;1.67;;;1.15;;
50219;SDS011;36110;51.536;7.562;2023-11-19T01:56:15;3.85;;;1.98;;
50219;SDS011;36110;51.536;7.562;2023-11-19T01:58:41;0.63;;;0.63;;
50219;SDS011;36110;51.536;7.562;2023-11-19T02:01:12;1.02;;;1.02;;
50219;SDS011;36110;51.536;7.562;2023-11-19T02:03:38;0.60;;;0.60;;
50219;SDS011;36110;51.536;7.562;2023-11-19T02:06:04;2.35;;;0.77;;
50219;SDS011;36110;51.536;7.562;2023-11-19T02:08:30;0.70;;;0.70;;
50219;SDS011;36110;51.536;7.562;2023-11-19T02:10:56;0.93;;;0.70;;
50219;SDS011;36110;51.536;7.562;2023-11-19T02:13:23;1.63;;;1.27;;
50219;SDS011;36110;51.536;7.562;2023-11-19T02:15:49;2.92;;;1.15;;
50219;SDS011;36110;51.536;7.562;2023-11-19T02:18:25;0.63;;;0.63;;
50219;SDS011;36110;51.536;7.562;2023-11-19T02:21:02;2.35;;;1.20;;
50219;SDS011;36110;51.536;7.562;2023-11-19T02:23:28;0.80;;;0.80;;
50219;SDS011;36110;51.536;7.562;2023-11-19T02:28:39;1.23;;;0.98;;
50219;SDS011;36110;51.536;7.562;2023-11-19T02:31:05;1.15;;;1.10;;
50219;SDS011;36110;51.536;7.562;2023-11-19T02:33:34;1.02;;;0.57;;
50219;SDS011;36110;51.536;7.562;2023-11-19T02:35:59;2.83;;;1.90;;
50219;SDS011;36110;51.536;7.562;2023-11-19T02:38:25;0.68;;;0.68;;
50219;SDS011;36110;51.536;7.562;2023-11-19T02:40:51;0.47;;;0.47;;
50219;SDS011;36110;51.536;7.562;2023-11-19T02:43:16;1.02;;;0.85;;
50219;SDS011;36110;51.536;7.562;2023-11-19T02:45:42;3.53;;;1.73;;
50219;SDS011;36110;51.536;7.562;2023-11-19T02:48:10;1.52;;;1.27;;
50219;SDS011;36110;51.536;7.562;2023-11-19T02:50:36;4.18;;;1.42;;
50219;SDS011;36110;51.536;7.562;2023-11-19T02:53:01;5.35;;;1.73;;
50219;SDS011;36110;51.536;7.562;2023-11-19T02:55:28;3.05;;;1.48;;
50219;SDS011;36110;51.536;7.562;2023-11-19T02:57:56;4.25;;;2.00;;
50219;SDS011;36110;51.536;7.562;2023-11-19T03:00:24;1.48;;;1.05;;
50219;SDS011;36110;51.536;7.562;2023-11-19T03:02:50;0.45;;;0.45;;
50219;SDS011;36110;51.536;7.562;2023-11-19T03:05:30;0.57;;;0.57;;
50219;SDS011;36110;51.536;7.562;2023-11-19T03:07:56;3.03;;;1.25;;
50219;SDS011;36110;51.536;7.562;2023-11-19T03:10:22;0.70;;;0.70;;
50219;SDS011;36110;51.536;7.562;2023-11-19T03:12:49;0.60;;;0.60;;
50219;SDS011;36110;51.536;7.562;2023-11-19T03:15:14;7.63;;;1.58;;
50219;SDS011;36110;51.536;7.562;2023-11-19T03:17:40;1.48;;;0.88;;
50219;SDS011;36110;51.536;7.562;2023-11-19T03:20:08;3.35;;;1.02;;
50219;SDS011;36110;51.536;7.562;2023-11-19T03:22:40;4.55;;;1.13;;
50219;SDS011;36110;51.536;7.562;2023-11-19T03:25:06;6.47;;;1.77;;
50219;SDS011;36110;51.536;7.562;2023-11-19T03:27:33;5.95;;;1.67;;
50219;SDS011;36110;51.536;7.562;2023-11-19T03:30:00;10.52;;;2.97;;
50219;SDS011;36110;51.536;7.562;2023-11-19T03:32:26;7.28;;;1.92;;
50219;SDS011;36110;51.536;7.562;2023-11-19T03:34:52;5.47;;;1.15;;
50219;SDS011;36110;51.536;7.562;2023-11-19T03:37:17;0.82;;;0.65;;
50219;SDS011;36110;51.536;7.562;2023-11-19T03:39:43;2.40;;;1.00;;
50219;SDS011;36110;51.536;7.562;2023-11-19T03:42:08;9.90;;;2.55;;
50219;SDS011;36110;51.536;7.562;2023-11-19T03:44:33;11.02;;;2.58;;
50219;SDS011;36110;51.536;7.562;2023-11-19T03:46:59;0.47;;;0.47;;
50219;SDS011;36110;51.536;7.562;2023-11-19T03:49:24;7.43;;;1.65;;
50219;SDS011;36110;51.536;7.562;2023-11-19T03:51:49;8.60;;;2.03;;
50219;SDS011;36110;51.536;7.562;2023-11-19T03:54:15;8.98;;;2.33;;
50219;SDS011;36110;51.536;7.562;2023-11-19T03:56:40;3.88;;;1.60;;
50219;SDS011;36110;51.536;7.562;2023-11-19T03:59:05;4.95;;;1.50;;
50219;SDS011;36110;51.536;7.562;2023-11-19T04:01:30;1.15;;;0.70;;
50219;SDS011;36110;51.536;7.562;2023-11-19T04:03:56;3.45;;;1.50;;
50219;SDS011;36110;51.536;7.562;2023-11-19T04:06:21;0.82;;;0.70;;
50219;SDS011;36110;51.536;7.562;2023-11-19T04:08:46;11.13;;;2.60;;
50219;SDS011;36110;51.536;7.562;2023-11-19T04:11:12;6.45;;;1.42;;
50219;SDS011;36110;51.536;7.562;2023-11-19T04:13:37;12.80;;;3.08;;
50219;SDS011;36110;51.536;7.562;2023-11-19T04:16:02;4.47;;;1.42;;
50219;SDS011;36110;51.536;7.562;2023-11-19T04:18:28;4.05;;;1.02;;
50219;SDS011;36110;51.536;7.562;2023-11-19T04:20:54;2.22;;;0.90;;
50219;SDS011;36110;51.536;7.562;2023-11-19T04:23:19;10.38;;;2.80;;
50219;SDS011;36110;51.536;7.562;2023-11-19T04:25:45;3.95;;;1.10;;
50219;SDS011;36110;51.536;7.562;2023-11-19T04:28:13;1.55;;;0.98;;
50219;SDS011;36110;51.536;7.562;2023-11-19T04:30:38;9.38;;;2.42;;
50219;SDS011;36110;51.536;7.562;2023-11-19T04:33:03;8.38;;;2.45;;
50219;SDS011;36110;51.536;7.562;2023-11-19T04:35:29;2.72;;;1.02;;
50219;SDS011;36110;51.536;7.562;2023-11-19T04:37:54;8.00;;;1.67;;
50219;SDS011;36110;51.536;7.562;2023-11-19T04:40:22;11.02;;;2.25;;
50219;SDS011;36110;51.536;7.562;2023-11-19T04:42:48;2.90;;;1.10;;
50219;SDS011;36110;51.536;7.562;2023-11-19T04:45:13;12.45;;;2.45;;
50219;SDS011;36110;51.536;7.562;2023-11-19T04:47:38;1.58;;;0.82;;
50219;SDS011;36110;51.536;7.562;2023-11-19T04:50:04;7.80;;;1.95;;
50219;SDS011;36110;51.536;7.562;2023-11-19T04:52:30;18.90;;;2.90;;
50219;SDS011;36110;51.536;7.562;2023-11-19T04:54:55;14.05;;;2.80;;
50219;SDS011;36110;51.536;7.562;2023-11-19T04:57:20;8.68;;;2.28;;
50219;SDS011;36110;51.536;7.562;2023-11-19T04:59:45;16.90;;;2.85;;
50219;SDS011;36110;51.536;7.562;2023-11-19T05:02:11;4.38;;;1.25;;
50219;SDS011;36110;51.536;7.562;2023-11-19T05:04:36;5.97;;;1.80;;
50219;SDS011;36110;51.536;7.562;2023-11-19T05:07:04;8.77;;;1.80;;
50219;SDS011;36110;51.536;7.562;2023-11-19T05:09:30;5.65;;;1.25;;
50219;SDS011;36110;51.536;7.562;2023-11-19T05:11:56;11.50;;;2.30;;
50219;SDS011;36110;51.536;7.562;2023-11-19T05:14:21;13.27;;;2.72;;
50219;SDS011;36110;51.536;7.562;2023-11-19T05:16:47;1.30;;;0.80;;
50219;SDS011;36110;51.536;7.562;2023-11-19T05:19:12;9.75;;;1.73;;
50219;SDS011;36110;51.536;7.562;2023-11-19T05:21:41;4.30;;;1.33;;
50219;SDS011;36110;51.536;7.562;2023-11-19T05:26:45;22.15;;;3.45;;
50219;SDS011;36110;51.536;7.562;2023-11-19T05:29:11;25.58;;;3.85;;
50219;SDS011;36110;51.536;7.562;2023-11-19T05:31:37;8.82;;;2.00;;
50219;SDS011;36110;51.536;7.562;2023-11-19T05:34:03;7.47;;;1.63;;
50219;SDS011;36110;51.536;7.562;2023-11-19T05:36:28;13.27;;;2.80;;
50219;SDS011;36110;51.536;7.562;2023-11-19T05:38:54;6.28;;;1.35;;
50219;SDS011;36110;51.536;7.562;2023-11-19T05:41:20;11.55;;;2.85;;
50219;SDS011;36110;51.536;7.562;2023-11-19T05:43:45;18.50;;;3.83;;
50219;SDS011;36110;51.536;7.562;2023-11-19T05:46:11;11.45;;;2.50;;
50219;SDS011;36110;51.536;7.562;2023-11-19T05:48:38;14.23;;;2.72;;
50219;SDS011;36110;51.536;7.562;2023-11-19T05:51:03;2.58;;;1.13;;
50219;SDS011;36110;51.536;7.562;2023-11-19T05:53:29;17.58;;;3.10;;
50219;SDS011;36110;51.536;7.562;2023-11-19T05:55:54;16.40;;;3.13;;
50219;SDS011;36110;51.536;7.562;2023-11-19T05:58:26;13.60;;;2.92;;
50219;SDS011;36110;51.536;7.562;2023-11-19T06:00:54;23.67;;;3.55;;
50219;SDS011;36110;51.536;7.562;2023-11-19T06:03:20;16.45;;;3.03;;
50219;SDS011;36110;51.536;7.562;2023-11-19T06:05:46;13.65;;;2.67;;
50219;SDS011;36110;51.536;7.562;2023-11-19T06:08:12;20.60;;;3.38;;
50219;SDS011;36110;51.536;7.562;2023-11-19T06:10:41;10.80;;;2.03;;
50219;SDS011;36110;51.536;7.562;2023-11-19T06:13:07;7.82;;;2.10;;
50219;SDS011;36110;51.536;7.562;2023-11-19T06:15:35;4.50;;;1.48;;
50219;SDS011;36110;51.536;7.562;2023-11-19T06:18:00;16.70;;;4.38;;
50219;SDS011;36110;51.536;7.562;2023-11-19T06:20:26;20.80;;;3.95;;
50219;SDS011;36110;51.536;7.562;2023-11-19T06:22:54;19.30;;;3.55;;
50219;SDS011;36110;51.536;7.562;2023-11-19T06:25:19;14.10;;;3.03;;
50219;SDS011;36110;51.536;7.562;2023-11-19T06:27:44;8.15;;;2.25;;
50219;SDS011;36110;51.536;7.562;2023-11-19T06:30:10;23.48;;;3.65;;
50219;SDS011;36110;51.536;7.562;2023-11-19T06:32:36;17.92;;;3.03;;
50219;SDS011;36110;51.536;7.562;2023-11-19T06:35:02;18.08;;;3.47;;
50219;SDS011;36110;51.536;7.562;2023-11-19T06:37:29;12.85;;;2.58;;
50219;SDS011;36110;51.536;7.562;2023-11-19T06:40:04;15.48;;;3.35;;
50219;SDS011;36110;51.536;7.562;2023-11-19T06:42:37;30.10;;;4.70;;
50219;SDS011;36110;51.536;7.562;2023-11-19T06:45:03;21.65;;;4.25;;
50219;SDS011;36110;51.536;7.562;2023-11-19T06:47:29;12.35;;;2.83;;
50219;SDS011;36110;51.536;7.562;2023-11-19T06:49:54;3.45;;;1.38;;
50219;SDS011;36110;51.536;7.562;2023-11-19T06:52:20;16.30;;;3.17;;
50219;SDS011;36110;51.536;7.562;2023-11-19T06:54:45;24.73;;;3.97;;
50219;SDS011;36110;51.536;7.562;2023-11-19T06:57:11;25.48;;;4.45;;
50219;SDS011;36110;51.536;7.562;2023-11-19T06:59:37;12.00;;;2.47;;
50219;SDS011;36110;51.536;7.562;2023-11-19T07:02:08;23.90;;;4.10;;
50219;SDS011;36110;51.536;7.562;2023-11-19T07:04:33;10.43;;;3.05;;
50219;SDS011;36110;51.536;7.562;2023-11-19T07:06:59;14.73;;;2.83;;
50219;SDS011;36110;51.536;7.562;2023-11-19T07:09:25;13.35;;;2.45;;
50219;SDS011;36110;51.536;7.562;2023-11-19T07:11:51;5.03;;;1.83;;
50219;SDS011;36110;51.536;7.562;2023-11-19T07:14:19;11.60;;;2.72;;
50219;SDS011;36110;51.536;7.562;2023-11-19T07:16:47;14.65;;;2.58;;
50219;SDS011;36110;51.536;7.562;2023-11-19T07:19:13;8.68;;;2.42;;
50219;SDS011;36110;51.536;7.562;2023-11-19T07:21:41;18.40;;;2.88;;
50219;SDS011;36110;51.536;7.562;2023-11-19T07:24:09;22.83;;;3.67;;
50219;SDS011;36110;51.536;7.562;2023-11-19T07:26:35;12.45;;;2.70;;
50219;SDS011;36110;51.536;7.562;2023-11-19T07:29:02;19.63;;;3.42;;
50219;SDS011;36110;51.536;7.562;2023-11-19T07:31:29;6.65;;;2.10;;
50219;SDS011;36110;51.536;7.562;2023-11-19T07:33:54;18.05;;;4.05;;
50219;SDS011;36110;51.536;7.562;2023-11-19T07:36:20;10.13;;;2.80;;
50219;SDS011;36110;51.536;7.562;2023-11-19T07:38:45;21.60;;;3.22;;
50219;SDS011;36110;51.536;7.562;2023-11-19T07:41:11;8.60;;;2.13;;
50219;SDS011;36110;51.536;7.562;2023-11-19T07:43:43;9.85;;;2.17;;
50219;SDS011;36110;51.536;7.562;2023-11-19T07:46:12;15.57;;;3.42;;
50219;SDS011;36110;51.536;7.562;2023-11-19T07:48:41;18.60;;;3.40;;
50219;SDS011;36110;51.536;7.562;2023-11-19T07:51:07;13.00;;;3.58;;
50219;SDS011;36110;51.536;7.562;2023-11-19T07:53:32;13.85;;;3.35;;
50219;SDS011;36110;51.536;7.562;2023-11-19T07:55:58;12.73;;;2.42;;
50219;SDS011;36110;51.536;7.562;2023-11-19T07:58:24;18.42;;;3.42;;
50219;SDS011;36110;51.536;7.562;2023-11-19T08:00:50;19.15;;;3.55;;
50219;SDS011;36110;51.536;7.562;2023-11-19T08:03:15;14.20;;;2.80;;
50219;SDS011;36110;51.536;7.562;2023-11-19T08:05:41;8.23;;;1.80;;
50219;SDS011;36110;51.536;7.562;2023-11-19T08:08:06;7.60;;;1.80;;
50219;SDS011;36110;51.536;7.562;2023-11-19T08:10:32;8.18;;;1.75;;
50219;SDS011;36110;51.536;7.562;2023-11-19T08:12:58;11.07;;;2.85;;
50219;SDS011;36110;51.536;7.562;2023-11-19T08:15:33;14.15;;;2.65;;
50219;SDS011;36110;51.536;7.562;2023-11-19T08:17:58;7.17;;;2.00;;
50219;SDS011;36110;51.536;7.562;2023-11-19T08:20:24;21.58;;;4.28;;
50219;SDS011;36110;51.536;7.562;2023-11-19T08:22:49;14.75;;;3.25;;
50219;SDS011;36110;51.536;7.562;2023-11-19T08:25:14;6.90;;;2.17;;
50219;SDS011;36110;51.536;7.562;2023-11-19T08:27:40;24.40;;;4.80;;
50219;SDS011;36110;51.536;7.562;2023-11-19T08:30:05;7.82;;;2.08;;
50219;SDS011;36110;51.536;7.562;2023-11-19T08:32:31;22.65;;;3.92;;
50219;SDS011;36110;51.536;7.562;2023-11-19T08:34:57;4.88;;;1.90;;
50219;SDS011;36110;51.536;7.562;2023-11-19T08:37:22;10.80;;;2.13;;
50219;SDS011;36110;51.536;7.562;2023-11-19T08:39:48;16.42;;;3.03;;
50219;SDS011;36110;51.536;7.562;2023-11-19T08:42:13;19.80;;;4.22;;
50219;SDS011;36110;51.536;7.562;2023-11-19T08:44:39;16.08;;;2.90;;
50219;SDS011;36110;51.536;7.562;2023-11-19T08:47:05;17.63;;;3.97;;
50219;SDS011;36110;51.536;7.562;2023-11-19T08:49:31;15.20;;;3.00;;
50219;SDS011;36110;51.536;7.562;2023-11-19T08:51:56;3.85;;;1.73;;
50219;SDS011;36110;51.536;7.562;2023-11-19T08:54:21;19.58;;;4.22;;
50219;SDS011;36110;51.536;7.562;2023-11-19T08:56:48;7.35;;;2.25;;
50219;SDS011;36110;51.536;7.562;2023-11-19T08:59:13;9.13;;;2.13;;
50219;SDS011;36110;51.536;7.562;2023-11-19T09:01:40;5.03;;;2.17;;
50219;SDS011;36110;51.536;7.562;2023-11-19T09:04:06;26.67;;;4.65;;
50219;SDS011;36110;51.536;7.562;2023-11-19T09:06:31;18.83;;;3.38;;
50219;SDS011;36110;51.536;7.562;2023-11-19T09:09:03;21.38;;;4.25;;
50219;SDS011;36110;51.536;7.562;2023-11-19T09:14:57;17.27;;;3.63;;
50219;SDS011;36110;51.536;7.562;2023-11-19T09:17:22;25.85;;;5.50;;
50219;SDS011;36110;51.536;7.562;2023-11-19T09:19:50;9.93;;;2.67;;
50219;SDS011;36110;51.536;7.562;2023-11-19T09:22:16;14.73;;;3.33;;
50219;SDS011;36110;51.536;7.562;2023-11-19T09:24:42;25.60;;;3.85;;
50219;SDS011;36110;51.536;7.562;2023-11-19T09:27:09;21.98;;;4.85;;
50219;SDS011;36110;51.536;7.562;2023-11-19T09:29:34;11.52;;;2.42;;
50219;SDS011;36110;51.536;7.562;2023-11-19T09:32:00;13.23;;;3.42;;
50219;SDS011;36110;51.536;7.562;2023-11-19T09:34:29;8.05;;;1.75;;
50219;SDS011;36110;51.536;7.562;2023-11-19T09:36:55;24.23;;;3.80;;
50219;SDS011;36110;51.536;7.562;2023-11-19T09:39:20;19.98;;;4.05;;
50219;SDS011;36110;51.536;7.562;2023-11-19T09:41:46;8.90;;;2.45;;
50219;SDS011;36110;51.536;7.562;2023-11-19T09:44:12;24.40;;;3.92;;
50219;SDS011;36110;51.536;7.562;2023-11-19T09:46:38;7.35;;;1.95;;
50219;SDS011;36110;51.536;7.562;2023-11-19T09:49:04;33.78;;;7.43;;
50219;SDS011;36110;51.536;7.562;2023-11-19T09:51:32;29.67;;;8.68;;
50219;SDS011;36110;51.536;7.562;2023-11-19T09:53:58;24.90;;;6.82;;
50219;SDS011;36110;51.536;7.562;2023-11-19T09:56:23;29.88;;;6.47;;
50219;SDS011;36110;51.536;7.562;2023-11-19T09:58:51;24.40;;;6.00;;
50219;SDS011;36110;51.536;7.562;2023-11-19T10:01:16;33.22;;;6.05;;
50219;SDS011;36110;51.536;7.562;2023-11-19T10:03:42;24.45;;;4.72;;
50219;SDS011;36110;51.536;7.562;2023-11-19T10:06:09;27.55;;;5.93;;
50219;SDS011;36110;51.536;7.562;2023-11-19T10:08:39;29.63;;;6.43;;
50219;SDS011;36110;51.536;7.562;2023-11-19T10:11:05;20.45;;;4.45;;
50219;SDS011;36110;51.536;7.562;2023-11-19T10:13:38;29.65;;;5.75;;
50219;SDS011;36110;51.536;7.562;2023-11-19T10:16:07;26.55;;;5.88;;
50219;SDS011;36110;51.536;7.562;2023-11-19T10:18:33;18.90;;;4.22;;
50219;SDS011;36110;51.536;7.562;2023-11-19T10:21:02;25.63;;;4.50;;
50219;SDS011;36110;51.536;7.562;2023-11-19T10:23:31;24.10;;;4.53;;
50219;SDS011;36110;51.536;7.562;2023-11-19T10:26:06;19.88;;;3.97;;
50219;SDS011;36110;51.536;7.562;2023-11-19T10:28:41;29.88;;;5.53;;
50219;SDS011;36110;51.536;7.562;2023-11-19T10:31:09;24.13;;;4.45;;
50219;SDS011;36110;51.536;7.562;2023-11-19T10:33:37;26.33;;;4.72;;
50219;SDS011;36110;51.536;7.562;2023-11-19T10:36:02;22.73;;;3.85;;
50219;SDS011;36110;51.536;7.562;2023-11-19T10:38:28;22.25;;;4.00;;
50219;SDS011;36110;51.536;7.562;2023-11-19T10:40:53;29.95;;;4.95;;
50219;SDS011;36110;51.536;7.562;2023-11-19T10:43:22;21.08;;;4.47;;
50219;SDS011;36110;51.536;7.562;2023-11-19T10:45:48;22.00;;;4.65;;
50219;SDS011;36110;51.536;7.562;2023-11-19T10:48:14;22.15;;;3.92;;
50219;SDS011;36110;51.536;7.562;2023-11-19T10:50:43;26.52;;;5.43;;
50219;SDS011;36110;51.536;7.562;2023-11-19T10:53:09;15.90;;;3.35;;
50219;SDS011;36110;51.536;7.562;2023-11-19T10:55:38;26.58;;;4.57;;
50219;SDS011;36110;51.536;7.562;2023-11-19T11:01:03;16.10;;;3.50;;
50219;SDS011;36110;51.536;7.562;2023-11-19T11:03:40;17.63;;;3.85;;
50219;SDS011;36110;51.536;7.562;2023-11-19T11:06:09;16.42;;;3.25;;
50219;SDS011;36110;51.536;7.562;2023-11-19T11:08:38;16.42;;;3.72;;
50219;SDS011;36110;51.536;7.562;2023-11-19T11:11:04;21.77;;;4.80;;
50219;SDS011;36110;51.536;7.562;2023-11-19T11:13:31;23.02;;;5.25;;
50219;SDS011;36110;51.536;7.562;2023-11-19T11:15:57;20.27;;;4.57;;
50219;SDS011;36110;51.536;7.562;2023-11-19T11:18:23;10.70;;;3.45;;
50219;SDS011;36110;51.536;7.562;2023-11-19T11:20:53;19.05;;;3.95;;
50219;SDS011;36110;51.536;7.562;2023-11-19T11:29:01;17.65;;;4.07;;
50219;SDS011;36110;51.536;7.562;2023-11-19T11:35:24;12.55;;;3.40;;
50219;SDS011;36110;51.536;7.562;2023-11-19T11:38:06;27.85;;;5.10;;
50219;SDS011;36110;51.536;7.562;2023-11-19T11:43:51;14.18;;;3.45;;
50219;SDS011;36110;51.536;7.562;2023-11-19T11:47:10;24.50;;;4.43;;
50219;SDS011;36110;51.536;7.562;2023-11-19T11:49:24;20.23;;;4.07;;
50219;SDS011;36110;51.536;7.562;2023-11-19T11:51:59;20.20;;;4.10;;
50219;SDS011;36110;51.536;7.562;2023-11-19T11:54:28;15.80;;;3.63;;
50219;SDS011;36110;51.536;7.562;2023-11-19T12:02:05;19.27;;;3.45;;
50219;SDS011;36110;51.536;7.562;2023-11-19T12:04:34;26.55;;;4.88;;
50219;SDS011;36110;51.536;7.562;2023-11-19T12:07:05;19.50;;;4.32;;
50219;SDS011;36110;51.536;7.562;2023-11-19T12:09:31;19.75;;;3.45;;
50219;SDS011;36110;51.536;7.562;2023-11-19T12:15:00;16.58;;;3.60;;
50219;SDS011;36110;51.536;7.562;2023-11-19T12:19:59;11.38;;;3.35;;
50219;SDS011;36110;51.536;7.562;2023-11-19T12:22:49;12.98;;;3.13;;
50219;SDS011;36110;51.536;7.562;2023-11-19T12:25:20;19.73;;;4.05;;
50219;SDS011;36110;51.536;7.562;2023-11-19T12:27:48;15.38;;;4.38;;
50219;SDS011;36110;51.536;7.562;2023-11-19T12:30:21;20.52;;;4.65;;
50219;SDS011;36110;51.536;7.562;2023-11-19T12:35:25;25.60;;;4.70;;
50219;SDS011;36110;51.536;7.562;2023-11-19T12:37:51;25.25;;;4.45;;
50219;SDS011;36110;51.536;7.562;2023-11-19T12:40:22;23.63;;;4.65;;
50219;SDS011;36110;51.536;7.562;2023-11-19T12:42:48;31.75;;;5.72;;
50219;SDS011;36110;51.536;7.562;2023-11-19T12:45:15;25.23;;;4.95;;
50219;SDS011;36110;51.536;7.562;2023-11-19T12:47:41;21.52;;;4.38;;
50219;SDS011;36110;51.536;7.562;2023-11-19T12:50:08;22.60;;;4.70;;
50219;SDS011;36110;51.536;7.562;2023-11-19T12:52:34;19.60;;;4.07;;
50219;SDS011;36110;51.536;7.562;2023-11-19T12:55:01;23.50;;;4.88;;
50219;SDS011;36110;51.536;7.562;2023-11-19T12:57:40;21.17;;;4.45;;
50219;SDS011;36110;51.536;7.562;2023-11-19T13:00:07;26.48;;;5.50;;
50219;SDS011;36110;51.536;7.562;2023-11-19T13:02:46;28.10;;;5.45;;
50219;SDS011;36110;51.536;7.562;2023-11-19T13:08:02;19.70;;;4.05;;
50219;SDS011;36110;51.536;7.562;2023-11-19T13:10:49;21.00;;;4.38;;
50219;SDS011;36110;51.536;7.562;2023-11-19T13:13:16;20.35;;;4.40;;
50219;SDS011;36110;51.536;7.562;2023-11-19T13:15:44;17.42;;;4.32;;
50219;SDS011;36110;51.536;7.562;2023-11-19T13:18:10;15.85;;;4.18;;
50219;SDS011;36110;51.536;7.562;2023-11-19T13:20:35;17.83;;;3.88;;
50219;SDS011;36110;51.536;7.562;2023-11-19T13:23:02;16.45;;;3.83;;
50219;SDS011;36110;51.536;7.562;2023-11-19T13:25:30;18.50;;;3.67;;
50219;SDS011;36110;51.536;7.562;2023-11-19T13:27:57;19.73;;;4.38;;
50219;SDS011;36110;51.536;7.562;2023-11-19T13:30:23;17.17;;;3.70;;
50219;SDS011;36110;51.536;7.562;2023-11-19T13:32:49;19.17;;;3.92;;
50219;SDS011;36110;51.536;7.562;2023-11-19T13:35:15;24.10;;;4.68;;
50219;SDS011;36110;51.536;7.562;2023-11-19T13:37:42;21.88;;;3.92;;
50219;SDS011;36110;51.536;7.562;2023-11-19T13:40:07;19.75;;;3.88;;
50219;SDS011;36110;51.536;7.562;2023-11-19T13:42:35;18.83;;;3.53;;
50219;SDS011;36110;51.536;7.562;2023-11-19T13:45:10;17.65;;;3.67;;
50219;SDS011;36110;51.536;7.562;2023-11-19T13:47:37;19.42;;;4.03;;
50219;SDS011;36110;51.536;7.562;2023-11-19T13:50:09;17.63;;;4.18;;
50219;SDS011;36110;51.536;7.562;2023-11-19T13:52:36;22.52;;;3.92;;
50219;SDS011;36110;51.536;7.562;2023-11-19T13:55:03;23.80;;;4.03;;
50219;SDS011;36110;51.536;7.562;2023-11-19T13:57:33;14.80;;;3.40;;
50219;SDS011;36110;51.536;7.562;2023-11-19T14:00:11;16.35;;;3.72;;
50219;SDS011;36110;51.536;7.562;2023-11-19T14:02:44;17.73;;;3.25;;
50219;SDS011;36110;51.536;7.562;2023-11-19T14:05:10;17.35;;;3.67;;
50219;SDS011;36110;51.536;7.562;2023-11-19T14:07:36;20.05;;;3.45;;
50219;SDS011;36110;51.536;7.562;2023-11-19T14:10:01;12.93;;;3.08;;
50219;SDS011;36110;51.536;7.562;2023-11-19T14:12:27;18.95;;;3.08;;
50219;SDS011;36110;51.536;7.562;2023-11-19T14:14:52;18.67;;;3.47;;
50219;SDS011;36110;51.536;7.562;2023-11-19T14:17:18;15.52;;;3.53;;
50219;SDS011;36110;51.536;7.562;2023-11-19T14:19:43;20.05;;;4.25;;
50219;SDS011;36110;51.536;7.562;2023-11-19T14:22:09;17.58;;;4.25;;
50219;SDS011;36110;51.536;7.562;2023-11-19T14:24:34;15.00;;;3.58;;
50219;SDS011;36110;51.536;7.562;2023-11-19T14:27:00;19.83;;;3.90;;
50219;SDS011;36110;51.536;7.562;2023-11-19T14:29:26;22.63;;;4.45;;
50219;SDS011;36110;51.536;7.562;2023-11-19T14:31:53;16.00;;;3.83;;
50219;SDS011;36110;51.536;7.562;2023-11-19T14:34:19;18.27;;;3.88;;
50219;SDS011;36110;51.536;7.562;2023-11-19T14:36:45;14.93;;;3.63;;
50219;SDS011;36110;51.536;7.562;2023-11-19T14:39:10;17.05;;;3.80;;
50219;SDS011;36110;51.536;7.562;2023-11-19T14:41:35;13.27;;;3.53;;
50219;SDS011;36110;51.536;7.562;2023-11-19T14:44:01;23.35;;;4.40;;
50219;SDS011;36110;51.536;7.562;2023-11-19T14:46:28;13.82;;;3.15;;
50219;SDS011;36110;51.536;7.562;2023-11-19T14:48:53;9.38;;;2.83;;
50219;SDS011;36110;51.536;7.562;2023-11-19T14:51:19;10.65;;;3.00;;
50219;SDS011;36110;51.536;7.562;2023-11-19T14:53:45;16.15;;;3.60;;
50219;SDS011;36110;51.536;7.562;2023-11-19T14:56:10;17.98;;;4.40;;
50219;SDS011;36110;51.536;7.562;2023-11-19T14:58:37;14.00;;;3.25;;
50219;SDS011;36110;51.536;7.562;2023-11-19T15:01:03;13.70;;;3.75;;
50219;SDS011;36110;51.536;7.562;2023-11-19T15:03:29;17.92;;;4.75;;
50219;SDS011;36110;51.536;7.562;2023-11-19T15:05:55;19.83;;;4.72;;
50219;SDS011;36110;51.536;7.562;2023-11-19T15:08:21;10.20;;;3.00;;
50219;SDS011;36110;51.536;7.562;2023-11-19T15:10:46;13.82;;;3.45;;
50219;SDS011;36110;51.536;7.562;2023-11-19T15:13:11;12.75;;;3.10;;
50219;SDS011;36110;51.536;7.562;2023-11-19T15:15:37;19.45;;;3.75;;
50219;SDS011;36110;51.536;7.562;2023-11-19T15:18:04;19.30;;;3.38;;
50219;SDS011;36110;51.536;7.562;2023-11-19T15:20:29;11.65;;;2.80;;